sensor_id;sensor_type;location;lat;lon;timestamp;P1;durP1;ratioP1;P2;durP2;ratioP2
11970;SDS011;6045;42.682;23.294;2023-05-15T00:00:24;4.63;;;3.47;;
11970;SDS011;6045;42.682;23.294;2023-05-15T00:02:51;5.30;;;3.67;;
11970;SDS011;6045;42.682;23.294;2023-05-15T00:05:19;5.93;;;3.20;;
11970;SDS011;6045;42.682;23.294;2023-05-15T00:07:47;4.93;;;3.17;;
11970;SDS011;6045;42.682;23.294;2023-05-15T00:10:13;5.63;;;2.70;;
11970;SDS011;6045;42.682;23.294;2023-05-15T00:12:40;6.20;;;3.70;;
11970;SDS011;6045;42.682;23.294;2023-05-15T00:15:07;5.67;;;4.03;;
11970;SDS011;6045;42.682;23.294;2023-05-15T00:17:34;4.33;;;2.80;;
11970;SDS011;6045;42.682;23.294;2023-05-15T00:20:01;3.67;;;3.33;;
11970;SDS011;6045;42.682;23.294;2023-05-15T00:22:30;4.07;;;2.87;;
11970;SDS011;6045;42.682;23.294;2023-05-15T00:24:57;5.43;;;3.03;;
11970;SDS011;6045;42.682;23.294;2023-05-15T00:27:24;5.57;;;3.03;;
11970;SDS011;6045;42.682;23.294;2023-05-15T00:29:50;3.93;;;2.77;;
11970;SDS011;6045;42.682;23.294;2023-05-15T00:32:17;6.27;;;2.77;;
11970;SDS011;6045;42.682;23.294;2023-05-15T00:34:44;3.90;;;3.27;;
11970;SDS011;6045;42.682;23.294;2023-05-15T00:37:11;3.83;;;3.03;;
11970;SDS011;6045;42.682;23.294;2023-05-15T00:39:39;4.33;;;3.07;;
11970;SDS011;6045;42.682;23.294;2023-05-15T00:42:06;4.13;;;2.93;;
11970;SDS011;6045;42.682;23.294;2023-05-15T00:44:33;4.43;;;3.03;;
11970;SDS011;6045;42.682;23.294;2023-05-15T00:47:01;5.47;;;3.83;;
11970;SDS011;6045;42.682;23.294;2023-05-15T00:49:29;5.50;;;2.80;;
11970;SDS011;6045;42.682;23.294;2023-05-15T00:52:00;3.23;;;2.50;;
11970;SDS011;6045;42.682;23.294;2023-05-15T00:54:27;5.70;;;3.63;;
11970;SDS011;6045;42.682;23.294;2023-05-15T00:56:57;5.90;;;3.23;;
11970;SDS011;6045;42.682;23.294;2023-05-15T00:59:25;5.07;;;3.30;;
11970;SDS011;6045;42.682;23.294;2023-05-15T01:01:55;5.87;;;3.30;;
11970;SDS011;6045;42.682;23.294;2023-05-15T01:04:22;4.70;;;3.23;;
11970;SDS011;6045;42.682;23.294;2023-05-15T01:06:49;5.13;;;3.23;;
11970;SDS011;6045;42.682;23.294;2023-05-15T01:09:18;5.30;;;3.33;;
11970;SDS011;6045;42.682;23.294;2023-05-15T01:11:45;3.57;;;2.97;;
11970;SDS011;6045;42.682;23.294;2023-05-15T01:14:16;4.40;;;3.30;;
11970;SDS011;6045;42.682;23.294;2023-05-15T01:16:43;6.17;;;3.90;;
11970;SDS011;6045;42.682;23.294;2023-05-15T01:19:10;4.87;;;3.23;;
11970;SDS011;6045;42.682;23.294;2023-05-15T01:24:44;6.13;;;3.57;;
11970;SDS011;6045;42.682;23.294;2023-05-15T01:27:26;3.90;;;2.90;;
11970;SDS011;6045;42.682;23.294;2023-05-15T01:29:59;4.80;;;2.77;;
11970;SDS011;6045;42.682;23.294;2023-05-15T01:32:42;5.03;;;3.27;;
11970;SDS011;6045;42.682;23.294;2023-05-15T01:35:13;6.57;;;3.17;;
11970;SDS011;6045;42.682;23.294;2023-05-15T01:37:46;4.70;;;3.33;;
11970;SDS011;6045;42.682;23.294;2023-05-15T01:40:16;5.03;;;3.60;;
11970;SDS011;6045;42.682;23.294;2023-05-15T01:42:48;4.10;;;2.90;;
11970;SDS011;6045;42.682;23.294;2023-05-15T01:45:19;6.53;;;3.70;;
11970;SDS011;6045;42.682;23.294;2023-05-15T01:47:48;3.97;;;3.57;;
11970;SDS011;6045;42.682;23.294;2023-05-15T01:50:18;5.50;;;3.77;;
11970;SDS011;6045;42.682;23.294;2023-05-15T01:52:47;4.80;;;3.23;;
11970;SDS011;6045;42.682;23.294;2023-05-15T01:55:16;5.13;;;3.60;;
11970;SDS011;6045;42.682;23.294;2023-05-15T01:57:44;5.33;;;3.73;;
11970;SDS011;6045;42.682;23.294;2023-05-15T02:00:15;5.37;;;3.43;;
11970;SDS011;6045;42.682;23.294;2023-05-15T02:02:43;3.67;;;3.00;;
11970;SDS011;6045;42.682;23.294;2023-05-15T02:05:11;4.17;;;3.17;;
11970;SDS011;6045;42.682;23.294;2023-05-15T02:07:38;6.40;;;3.60;;
11970;SDS011;6045;42.682;23.294;2023-05-15T02:10:07;3.77;;;3.00;;
11970;SDS011;6045;42.682;23.294;2023-05-15T02:12:36;3.53;;;2.90;;
11970;SDS011;6045;42.682;23.294;2023-05-15T02:15:06;3.90;;;3.07;;
11970;SDS011;6045;42.682;23.294;2023-05-15T02:17:46;6.63;;;3.57;;
11970;SDS011;6045;42.682;23.294;2023-05-15T02:20:18;3.17;;;2.83;;
11970;SDS011;6045;42.682;23.294;2023-05-15T02:22:45;5.50;;;3.60;;
11970;SDS011;6045;42.682;23.294;2023-05-15T02:25:12;6.60;;;3.43;;
11970;SDS011;6045;42.682;23.294;2023-05-15T02:27:41;6.93;;;4.60;;
11970;SDS011;6045;42.682;23.294;2023-05-15T02:30:26;6.80;;;4.27;;
11970;SDS011;6045;42.682;23.294;2023-05-15T02:33:03;6.03;;;3.87;;
11970;SDS011;6045;42.682;23.294;2023-05-15T02:35:36;7.10;;;3.67;;
11970;SDS011;6045;42.682;23.294;2023-05-15T02:38:11;4.17;;;3.17;;
11970;SDS011;6045;42.682;23.294;2023-05-15T02:40:42;5.73;;;4.37;;
11970;SDS011;6045;42.682;23.294;2023-05-15T02:43:10;6.17;;;4.30;;
11970;SDS011;6045;42.682;23.294;2023-05-15T02:45:40;8.60;;;5.60;;
11970;SDS011;6045;42.682;23.294;2023-05-15T02:48:09;6.17;;;4.50;;
11970;SDS011;6045;42.682;23.294;2023-05-15T02:50:37;5.60;;;3.87;;
11970;SDS011;6045;42.682;23.294;2023-05-15T02:53:04;8.50;;;5.40;;
11970;SDS011;6045;42.682;23.294;2023-05-15T02:55:34;7.67;;;4.33;;
11970;SDS011;6045;42.682;23.294;2023-05-15T02:58:01;5.97;;;4.13;;
11970;SDS011;6045;42.682;23.294;2023-05-15T03:00:28;6.57;;;4.73;;
11970;SDS011;6045;42.682;23.294;2023-05-15T03:02:56;5.70;;;4.00;;
11970;SDS011;6045;42.682;23.294;2023-05-15T03:05:23;7.33;;;4.47;;
11970;SDS011;6045;42.682;23.294;2023-05-15T03:07:50;7.07;;;4.07;;
11970;SDS011;6045;42.682;23.294;2023-05-15T03:10:17;6.47;;;3.80;;
11970;SDS011;6045;42.682;23.294;2023-05-15T03:12:45;6.00;;;4.13;;
11970;SDS011;6045;42.682;23.294;2023-05-15T03:15:11;7.70;;;4.47;;
11970;SDS011;6045;42.682;23.294;2023-05-15T03:17:38;7.33;;;3.43;;
11970;SDS011;6045;42.682;23.294;2023-05-15T03:20:07;6.27;;;4.80;;
11970;SDS011;6045;42.682;23.294;2023-05-15T03:22:35;7.33;;;4.53;;
11970;SDS011;6045;42.682;23.294;2023-05-15T03:25:02;6.70;;;4.73;;
11970;SDS011;6045;42.682;23.294;2023-05-15T03:27:29;5.23;;;3.67;;
11970;SDS011;6045;42.682;23.294;2023-05-15T03:29:56;10.63;;;4.40;;
11970;SDS011;6045;42.682;23.294;2023-05-15T03:32:23;7.43;;;4.10;;
11970;SDS011;6045;42.682;23.294;2023-05-15T03:34:49;6.73;;;4.50;;
11970;SDS011;6045;42.682;23.294;2023-05-15T03:37:18;7.97;;;4.83;;
11970;SDS011;6045;42.682;23.294;2023-05-15T03:39:45;6.17;;;4.57;;
11970;SDS011;6045;42.682;23.294;2023-05-15T03:42:20;8.13;;;5.13;;
11970;SDS011;6045;42.682;23.294;2023-05-15T03:44:49;6.70;;;3.93;;
11970;SDS011;6045;42.682;23.294;2023-05-15T03:47:16;6.20;;;4.07;;
11970;SDS011;6045;42.682;23.294;2023-05-15T03:49:44;7.17;;;4.23;;
11970;SDS011;6045;42.682;23.294;2023-05-15T03:52:11;9.03;;;4.93;;
11970;SDS011;6045;42.682;23.294;2023-05-15T03:54:41;7.67;;;5.37;;
11970;SDS011;6045;42.682;23.294;2023-05-15T03:57:08;7.17;;;4.47;;
11970;SDS011;6045;42.682;23.294;2023-05-15T03:59:35;7.70;;;4.27;;
11970;SDS011;6045;42.682;23.294;2023-05-15T04:02:02;4.77;;;4.00;;
11970;SDS011;6045;42.682;23.294;2023-05-15T04:04:28;6.67;;;4.30;;
11970;SDS011;6045;42.682;23.294;2023-05-15T04:06:55;6.60;;;3.43;;
11970;SDS011;6045;42.682;23.294;2023-05-15T04:09:22;6.83;;;5.20;;
11970;SDS011;6045;42.682;23.294;2023-05-15T04:11:50;8.17;;;5.17;;
11970;SDS011;6045;42.682;23.294;2023-05-15T04:14:17;8.73;;;6.43;;
11970;SDS011;6045;42.682;23.294;2023-05-15T04:16:43;10.33;;;5.67;;
11970;SDS011;6045;42.682;23.294;2023-05-15T04:19:10;9.83;;;5.77;;
11970;SDS011;6045;42.682;23.294;2023-05-15T04:21:37;7.10;;;5.53;;
11970;SDS011;6045;42.682;23.294;2023-05-15T04:24:05;9.73;;;6.50;;
11970;SDS011;6045;42.682;23.294;2023-05-15T04:26:32;10.07;;;6.40;;
11970;SDS011;6045;42.682;23.294;2023-05-15T04:29:00;7.80;;;4.87;;
11970;SDS011;6045;42.682;23.294;2023-05-15T04:31:27;6.97;;;4.93;;
11970;SDS011;6045;42.682;23.294;2023-05-15T04:33:54;7.27;;;4.67;;
11970;SDS011;6045;42.682;23.294;2023-05-15T04:36:21;7.90;;;4.70;;
11970;SDS011;6045;42.682;23.294;2023-05-15T04:38:47;6.50;;;4.13;;
11970;SDS011;6045;42.682;23.294;2023-05-15T04:41:14;7.97;;;4.93;;
11970;SDS011;6045;42.682;23.294;2023-05-15T04:43:41;6.80;;;4.60;;
11970;SDS011;6045;42.682;23.294;2023-05-15T04:46:09;7.07;;;4.93;;
11970;SDS011;6045;42.682;23.294;2023-05-15T04:48:36;6.00;;;4.87;;
11970;SDS011;6045;42.682;23.294;2023-05-15T04:51:03;6.80;;;4.83;;
11970;SDS011;6045;42.682;23.294;2023-05-15T04:53:30;6.53;;;4.43;;
11970;SDS011;6045;42.682;23.294;2023-05-15T04:55:57;6.37;;;5.00;;
11970;SDS011;6045;42.682;23.294;2023-05-15T04:58:24;7.50;;;5.07;;
11970;SDS011;6045;42.682;23.294;2023-05-15T05:00:51;5.97;;;3.90;;
11970;SDS011;6045;42.682;23.294;2023-05-15T05:03:19;4.80;;;3.80;;
11970;SDS011;6045;42.682;23.294;2023-05-15T05:05:46;8.03;;;4.97;;
11970;SDS011;6045;42.682;23.294;2023-05-15T05:08:12;8.27;;;5.60;;
11970;SDS011;6045;42.682;23.294;2023-05-15T05:10:39;6.03;;;3.30;;
11970;SDS011;6045;42.682;23.294;2023-05-15T05:13:06;7.23;;;3.77;;
11970;SDS011;6045;42.682;23.294;2023-05-15T05:15:32;5.80;;;4.53;;
11970;SDS011;6045;42.682;23.294;2023-05-15T05:17:59;6.30;;;4.67;;
11970;SDS011;6045;42.682;23.294;2023-05-15T05:20:27;5.60;;;4.47;;
11970;SDS011;6045;42.682;23.294;2023-05-15T05:22:59;6.77;;;4.73;;
11970;SDS011;6045;42.682;23.294;2023-05-15T05:25:25;6.57;;;4.97;;
11970;SDS011;6045;42.682;23.294;2023-05-15T05:27:52;6.53;;;5.27;;
11970;SDS011;6045;42.682;23.294;2023-05-15T05:30:19;7.60;;;5.20;;
11970;SDS011;6045;42.682;23.294;2023-05-15T05:32:46;7.87;;;5.23;;
11970;SDS011;6045;42.682;23.294;2023-05-15T05:35:13;7.70;;;5.87;;
11970;SDS011;6045;42.682;23.294;2023-05-15T05:37:41;5.47;;;4.00;;
11970;SDS011;6045;42.682;23.294;2023-05-15T05:40:08;4.90;;;3.77;;
11970;SDS011;6045;42.682;23.294;2023-05-15T05:42:35;5.63;;;3.57;;
11970;SDS011;6045;42.682;23.294;2023-05-15T05:45:08;8.90;;;5.20;;
11970;SDS011;6045;42.682;23.294;2023-05-15T05:47:35;10.03;;;6.57;;
11970;SDS011;6045;42.682;23.294;2023-05-15T05:50:02;10.10;;;6.33;;
11970;SDS011;6045;42.682;23.294;2023-05-15T05:52:29;10.43;;;6.13;;
11970;SDS011;6045;42.682;23.294;2023-05-15T05:54:57;6.10;;;5.33;;
11970;SDS011;6045;42.682;23.294;2023-05-15T05:57:24;8.20;;;5.20;;
11970;SDS011;6045;42.682;23.294;2023-05-15T05:59:59;7.57;;;5.23;;
11970;SDS011;6045;42.682;23.294;2023-05-15T06:02:32;6.30;;;4.60;;
11970;SDS011;6045;42.682;23.294;2023-05-15T06:04:59;8.07;;;5.47;;
11970;SDS011;6045;42.682;23.294;2023-05-15T06:07:26;7.67;;;5.00;;
11970;SDS011;6045;42.682;23.294;2023-05-15T06:09:53;7.07;;;4.50;;
11970;SDS011;6045;42.682;23.294;2023-05-15T06:12:22;9.27;;;5.03;;
11970;SDS011;6045;42.682;23.294;2023-05-15T06:14:48;7.83;;;4.83;;
11970;SDS011;6045;42.682;23.294;2023-05-15T06:17:15;8.43;;;4.23;;
11970;SDS011;6045;42.682;23.294;2023-05-15T06:19:42;8.90;;;5.30;;
11970;SDS011;6045;42.682;23.294;2023-05-15T06:22:09;25.57;;;12.80;;
11970;SDS011;6045;42.682;23.294;2023-05-15T06:24:36;7.30;;;5.23;;
11970;SDS011;6045;42.682;23.294;2023-05-15T06:27:02;9.57;;;5.50;;
11970;SDS011;6045;42.682;23.294;2023-05-15T06:29:31;10.63;;;6.13;;
11970;SDS011;6045;42.682;23.294;2023-05-15T06:31:57;7.57;;;5.73;;
11970;SDS011;6045;42.682;23.294;2023-05-15T06:34:24;8.70;;;5.87;;
11970;SDS011;6045;42.682;23.294;2023-05-15T06:36:51;7.93;;;5.47;;
11970;SDS011;6045;42.682;23.294;2023-05-15T06:39:18;8.00;;;5.17;;
11970;SDS011;6045;42.682;23.294;2023-05-15T06:41:44;11.03;;;6.13;;
11970;SDS011;6045;42.682;23.294;2023-05-15T06:44:11;9.07;;;6.53;;
11970;SDS011;6045;42.682;23.294;2023-05-15T06:46:39;10.00;;;5.80;;
11970;SDS011;6045;42.682;23.294;2023-05-15T06:49:06;7.97;;;4.70;;
11970;SDS011;6045;42.682;23.294;2023-05-15T06:51:33;10.43;;;5.03;;
11970;SDS011;6045;42.682;23.294;2023-05-15T06:53:59;8.57;;;4.70;;
11970;SDS011;6045;42.682;23.294;2023-05-15T06:56:26;9.80;;;4.97;;
11970;SDS011;6045;42.682;23.294;2023-05-15T06:58:53;11.20;;;5.13;;
11970;SDS011;6045;42.682;23.294;2023-05-15T07:01:20;7.50;;;5.37;;
11970;SDS011;6045;42.682;23.294;2023-05-15T07:03:48;6.20;;;5.15;;
11970;SDS011;6045;42.682;23.294;2023-05-15T07:06:15;9.40;;;5.15;;
11970;SDS011;6045;42.682;23.294;2023-05-15T07:08:42;9.47;;;5.10;;
11970;SDS011;6045;42.682;23.294;2023-05-15T07:11:08;8.70;;;5.57;;
11970;SDS011;6045;42.682;23.294;2023-05-15T07:13:35;9.00;;;5.57;;
11970;SDS011;6045;42.682;23.294;2023-05-15T07:16:02;11.83;;;5.13;;
11970;SDS011;6045;42.682;23.294;2023-05-15T07:18:29;9.30;;;5.73;;
11970;SDS011;6045;42.682;23.294;2023-05-15T07:20:57;11.13;;;5.20;;
11970;SDS011;6045;42.682;23.294;2023-05-15T07:23:24;10.43;;;5.10;;
11970;SDS011;6045;42.682;23.294;2023-05-15T07:25:51;9.27;;;4.28;;
11970;SDS011;6045;42.682;23.294;2023-05-15T07:28:19;8.73;;;5.50;;
11970;SDS011;6045;42.682;23.294;2023-05-15T07:30:45;7.80;;;4.35;;
11970;SDS011;6045;42.682;23.294;2023-05-15T07:33:12;6.13;;;4.43;;
11970;SDS011;6045;42.682;23.294;2023-05-15T07:35:39;7.80;;;5.27;;
11970;SDS011;6045;42.682;23.294;2023-05-15T07:38:07;9.03;;;5.23;;
11970;SDS011;6045;42.682;23.294;2023-05-15T07:40:34;7.10;;;4.07;;
11970;SDS011;6045;42.682;23.294;2023-05-15T07:43:00;8.75;;;5.35;;
11970;SDS011;6045;42.682;23.294;2023-05-15T07:45:27;7.07;;;4.63;;
11970;SDS011;6045;42.682;23.294;2023-05-15T07:47:54;8.33;;;4.87;;
11970;SDS011;6045;42.682;23.294;2023-05-15T07:50:22;7.47;;;5.07;;
11970;SDS011;6045;42.682;23.294;2023-05-15T07:52:49;10.43;;;5.57;;
11970;SDS011;6045;42.682;23.294;2023-05-15T07:55:17;9.93;;;5.53;;
11970;SDS011;6045;42.682;23.294;2023-05-15T07:57:44;8.50;;;5.47;;
11970;SDS011;6045;42.682;23.294;2023-05-15T08:00:11;9.60;;;5.30;;
11970;SDS011;6045;42.682;23.294;2023-05-15T08:02:39;7.13;;;5.45;;
11970;SDS011;6045;42.682;23.294;2023-05-15T08:05:10;10.73;;;5.70;;
11970;SDS011;6045;42.682;23.294;2023-05-15T08:07:36;9.50;;;6.07;;
11970;SDS011;6045;42.682;23.294;2023-05-15T08:10:03;10.80;;;6.57;;
11970;SDS011;6045;42.682;23.294;2023-05-15T08:12:32;7.20;;;5.90;;
11970;SDS011;6045;42.682;23.294;2023-05-15T08:14:59;9.47;;;6.33;;
11970;SDS011;6045;42.682;23.294;2023-05-15T08:17:26;10.17;;;6.40;;
11970;SDS011;6045;42.682;23.294;2023-05-15T08:19:53;9.03;;;5.87;;
11970;SDS011;6045;42.682;23.294;2023-05-15T08:22:20;13.70;;;7.37;;
11970;SDS011;6045;42.682;23.294;2023-05-15T08:24:47;11.37;;;5.67;;
11970;SDS011;6045;42.682;23.294;2023-05-15T08:27:14;8.97;;;5.63;;
11970;SDS011;6045;42.682;23.294;2023-05-15T08:29:42;10.03;;;6.53;;
11970;SDS011;6045;42.682;23.294;2023-05-15T08:32:09;10.17;;;6.60;;
11970;SDS011;6045;42.682;23.294;2023-05-15T08:34:35;10.53;;;6.77;;
11970;SDS011;6045;42.682;23.294;2023-05-15T08:37:03;13.77;;;7.27;;
11970;SDS011;6045;42.682;23.294;2023-05-15T08:39:30;10.80;;;6.40;;
11970;SDS011;6045;42.682;23.294;2023-05-15T08:41:58;12.50;;;6.90;;
11970;SDS011;6045;42.682;23.294;2023-05-15T08:44:30;7.30;;;5.70;;
11970;SDS011;6045;42.682;23.294;2023-05-15T08:46:59;11.80;;;7.37;;
11970;SDS011;6045;42.682;23.294;2023-05-15T08:49:29;11.03;;;6.50;;
11970;SDS011;6045;42.682;23.294;2023-05-15T08:52:01;8.13;;;5.60;;
11970;SDS011;6045;42.682;23.294;2023-05-15T08:54:29;10.40;;;6.30;;
11970;SDS011;6045;42.682;23.294;2023-05-15T08:56:56;9.20;;;5.13;;
11970;SDS011;6045;42.682;23.294;2023-05-15T08:59:24;11.63;;;6.77;;
11970;SDS011;6045;42.682;23.294;2023-05-15T09:01:51;9.60;;;5.57;;
11970;SDS011;6045;42.682;23.294;2023-05-15T09:04:20;9.83;;;5.50;;
11970;SDS011;6045;42.682;23.294;2023-05-15T09:06:47;8.07;;;5.27;;
11970;SDS011;6045;42.682;23.294;2023-05-15T09:09:14;10.47;;;6.27;;
11970;SDS011;6045;42.682;23.294;2023-05-15T09:11:42;10.90;;;5.63;;
11970;SDS011;6045;42.682;23.294;2023-05-15T09:14:10;10.33;;;5.77;;
11970;SDS011;6045;42.682;23.294;2023-05-15T09:16:37;9.67;;;6.17;;
11970;SDS011;6045;42.682;23.294;2023-05-15T09:19:04;12.43;;;6.00;;
11970;SDS011;6045;42.682;23.294;2023-05-15T09:21:33;11.53;;;6.63;;
11970;SDS011;6045;42.682;23.294;2023-05-15T09:24:15;10.43;;;6.57;;
11970;SDS011;6045;42.682;23.294;2023-05-15T09:26:45;10.37;;;6.60;;
11970;SDS011;6045;42.682;23.294;2023-05-15T09:29:14;10.73;;;6.07;;
11970;SDS011;6045;42.682;23.294;2023-05-15T09:31:42;11.20;;;6.20;;
11970;SDS011;6045;42.682;23.294;2023-05-15T09:34:11;8.13;;;5.93;;
11970;SDS011;6045;42.682;23.294;2023-05-15T09:36:42;10.17;;;6.83;;
11970;SDS011;6045;42.682;23.294;2023-05-15T09:39:09;9.83;;;6.17;;
11970;SDS011;6045;42.682;23.294;2023-05-15T09:41:41;10.13;;;6.13;;
11970;SDS011;6045;42.682;23.294;2023-05-15T09:44:18;8.73;;;6.47;;
11970;SDS011;6045;42.682;23.294;2023-05-15T09:46:49;9.63;;;6.13;;
11970;SDS011;6045;42.682;23.294;2023-05-15T09:49:17;12.20;;;6.17;;
11970;SDS011;6045;42.682;23.294;2023-05-15T09:51:46;11.27;;;6.53;;
11970;SDS011;6045;42.682;23.294;2023-05-15T09:54:17;10.30;;;6.60;;
11970;SDS011;6045;42.682;23.294;2023-05-15T09:56:44;10.73;;;7.03;;
11970;SDS011;6045;42.682;23.294;2023-05-15T09:59:13;9.43;;;6.17;;
11970;SDS011;6045;42.682;23.294;2023-05-15T10:01:44;7.97;;;5.60;;
11970;SDS011;6045;42.682;23.294;2023-05-15T10:04:11;9.93;;;5.33;;
11970;SDS011;6045;42.682;23.294;2023-05-15T10:06:39;9.23;;;5.00;;
11970;SDS011;6045;42.682;23.294;2023-05-15T10:09:08;10.77;;;5.40;;
11970;SDS011;6045;42.682;23.294;2023-05-15T10:11:36;9.85;;;6.45;;
11970;SDS011;6045;42.682;23.294;2023-05-15T10:14:04;9.53;;;5.90;;
11970;SDS011;6045;42.682;23.294;2023-05-15T10:16:32;8.67;;;5.93;;
11970;SDS011;6045;42.682;23.294;2023-05-15T10:19:01;12.10;;;5.45;;
11970;SDS011;6045;42.682;23.294;2023-05-15T10:21:29;7.67;;;5.47;;
11970;SDS011;6045;42.682;23.294;2023-05-15T10:23:57;7.47;;;5.00;;
11970;SDS011;6045;42.682;23.294;2023-05-15T10:26:28;8.15;;;4.75;;
11970;SDS011;6045;42.682;23.294;2023-05-15T10:29:01;7.93;;;4.93;;
11970;SDS011;6045;42.682;23.294;2023-05-15T10:31:30;7.72;;;5.10;;
11970;SDS011;6045;42.682;23.294;2023-05-15T10:33:57;7.50;;;4.72;;
11970;SDS011;6045;42.682;23.294;2023-05-15T10:36:25;9.68;;;6.15;;
11970;SDS011;6045;42.682;23.294;2023-05-15T10:38:52;9.70;;;5.05;;
11970;SDS011;6045;42.682;23.294;2023-05-15T10:41:19;7.43;;;5.10;;
11970;SDS011;6045;42.682;23.294;2023-05-15T10:43:48;9.73;;;5.57;;
11970;SDS011;6045;42.682;23.294;2023-05-15T10:46:17;8.48;;;5.18;;
11970;SDS011;6045;42.682;23.294;2023-05-15T10:48:44;7.78;;;5.25;;
11970;SDS011;6045;42.682;23.294;2023-05-15T10:51:14;8.20;;;5.07;;
11970;SDS011;6045;42.682;23.294;2023-05-15T10:53:42;9.95;;;5.47;;
11970;SDS011;6045;42.682;23.294;2023-05-15T10:56:11;7.15;;;4.63;;
11970;SDS011;6045;42.682;23.294;2023-05-15T10:58:42;6.63;;;4.03;;
11970;SDS011;6045;42.682;23.294;2023-05-15T11:01:24;8.77;;;4.60;;
11970;SDS011;6045;42.682;23.294;2023-05-15T11:04:03;9.07;;;5.60;;
11970;SDS011;6045;42.682;23.294;2023-05-15T11:06:34;9.00;;;4.93;;
11970;SDS011;6045;42.682;23.294;2023-05-15T11:12:02;8.63;;;5.00;;
11970;SDS011;6045;42.682;23.294;2023-05-15T11:14:30;10.23;;;6.13;;
11970;SDS011;6045;42.682;23.294;2023-05-15T11:17:00;10.75;;;5.70;;
11970;SDS011;6045;42.682;23.294;2023-05-15T11:19:32;8.82;;;5.75;;
11970;SDS011;6045;42.682;23.294;2023-05-15T11:22:01;7.80;;;5.43;;
11970;SDS011;6045;42.682;23.294;2023-05-15T11:24:46;8.27;;;5.13;;
11970;SDS011;6045;42.682;23.294;2023-05-15T11:27:18;7.75;;;6.07;;
11970;SDS011;6045;42.682;23.294;2023-05-15T11:32:54;8.52;;;5.50;;
11970;SDS011;6045;42.682;23.294;2023-05-15T11:35:25;7.95;;;5.28;;
11970;SDS011;6045;42.682;23.294;2023-05-15T11:37:54;7.13;;;4.97;;
11970;SDS011;6045;42.682;23.294;2023-05-15T11:40:22;13.70;;;6.00;;
11970;SDS011;6045;42.682;23.294;2023-05-15T11:43:05;11.88;;;5.75;;
11970;SDS011;6045;42.682;23.294;2023-05-15T11:45:34;11.18;;;5.85;;
11970;SDS011;6045;42.682;23.294;2023-05-15T11:48:04;12.07;;;5.60;;
11970;SDS011;6045;42.682;23.294;2023-05-15T11:50:32;6.78;;;4.85;;
11970;SDS011;6045;42.682;23.294;2023-05-15T11:53:00;8.65;;;6.00;;
11970;SDS011;6045;42.682;23.294;2023-05-15T11:55:29;9.15;;;5.43;;
11970;SDS011;6045;42.682;23.294;2023-05-15T11:57:57;7.78;;;5.07;;
11970;SDS011;6045;42.682;23.294;2023-05-15T12:00:24;9.85;;;5.45;;
11970;SDS011;6045;42.682;23.294;2023-05-15T12:02:51;11.88;;;6.03;;
11970;SDS011;6045;42.682;23.294;2023-05-15T12:05:19;11.57;;;4.90;;
11970;SDS011;6045;42.682;23.294;2023-05-15T12:07:45;8.45;;;5.28;;
11970;SDS011;6045;42.682;23.294;2023-05-15T12:10:12;9.63;;;5.32;;
11970;SDS011;6045;42.682;23.294;2023-05-15T12:12:40;5.47;;;4.57;;
11970;SDS011;6045;42.682;23.294;2023-05-15T12:15:09;8.43;;;5.57;;
11970;SDS011;6045;42.682;23.294;2023-05-15T12:17:37;8.80;;;5.57;;
11970;SDS011;6045;42.682;23.294;2023-05-15T12:20:04;8.35;;;5.30;;
11970;SDS011;6045;42.682;23.294;2023-05-15T12:22:36;10.88;;;5.90;;
11970;SDS011;6045;42.682;23.294;2023-05-15T12:25:04;8.93;;;6.25;;
11970;SDS011;6045;42.682;23.294;2023-05-15T12:27:32;8.65;;;5.88;;
11970;SDS011;6045;42.682;23.294;2023-05-15T12:29:59;7.82;;;4.85;;
11970;SDS011;6045;42.682;23.294;2023-05-15T12:32:28;7.47;;;5.28;;
11970;SDS011;6045;42.682;23.294;2023-05-15T12:34:57;9.45;;;6.15;;
11970;SDS011;6045;42.682;23.294;2023-05-15T12:37:24;9.60;;;5.60;;
11970;SDS011;6045;42.682;23.294;2023-05-15T12:39:53;9.63;;;6.60;;
11970;SDS011;6045;42.682;23.294;2023-05-15T12:42:22;12.43;;;5.88;;
11970;SDS011;6045;42.682;23.294;2023-05-15T12:44:49;8.68;;;5.90;;
11970;SDS011;6045;42.682;23.294;2023-05-15T12:47:20;9.55;;;6.63;;
11970;SDS011;6045;42.682;23.294;2023-05-15T12:49:49;12.13;;;5.60;;
11970;SDS011;6045;42.682;23.294;2023-05-15T12:52:15;7.38;;;5.72;;
11970;SDS011;6045;42.682;23.294;2023-05-15T12:54:42;8.23;;;5.72;;
11970;SDS011;6045;42.682;23.294;2023-05-15T12:57:12;8.07;;;5.05;;
11970;SDS011;6045;42.682;23.294;2023-05-15T12:59:40;8.65;;;5.68;;
11970;SDS011;6045;42.682;23.294;2023-05-15T13:02:10;8.60;;;5.72;;
11970;SDS011;6045;42.682;23.294;2023-05-15T13:04:38;6.72;;;5.53;;
11970;SDS011;6045;42.682;23.294;2023-05-15T13:07:05;9.90;;;6.05;;
11970;SDS011;6045;42.682;23.294;2023-05-15T13:09:32;8.48;;;5.10;;
11970;SDS011;6045;42.682;23.294;2023-05-15T13:12:00;8.18;;;5.38;;
11970;SDS011;6045;42.682;23.294;2023-05-15T13:14:32;8.88;;;5.28;;
11970;SDS011;6045;42.682;23.294;2023-05-15T13:17:00;8.50;;;4.78;;
11970;SDS011;6045;42.682;23.294;2023-05-15T13:19:27;6.30;;;4.93;;
11970;SDS011;6045;42.682;23.294;2023-05-15T13:21:55;9.60;;;5.45;;
11970;SDS011;6045;42.682;23.294;2023-05-15T13:24:21;7.25;;;5.10;;
11970;SDS011;6045;42.682;23.294;2023-05-15T13:26:48;8.65;;;4.43;;
11970;SDS011;6045;42.682;23.294;2023-05-15T13:29:16;7.88;;;4.75;;
11970;SDS011;6045;42.682;23.294;2023-05-15T13:31:44;6.53;;;4.03;;
11970;SDS011;6045;42.682;23.294;2023-05-15T13:34:11;5.95;;;4.13;;
11970;SDS011;6045;42.682;23.294;2023-05-15T13:36:38;8.15;;;5.07;;
11970;SDS011;6045;42.682;23.294;2023-05-15T13:39:05;7.28;;;4.55;;
11970;SDS011;6045;42.682;23.294;2023-05-15T13:41:31;6.80;;;5.10;;
11970;SDS011;6045;42.682;23.294;2023-05-15T13:43:58;6.25;;;4.40;;
11970;SDS011;6045;42.682;23.294;2023-05-15T13:46:25;4.95;;;4.43;;
11970;SDS011;6045;42.682;23.294;2023-05-15T13:48:53;6.68;;;4.63;;
11970;SDS011;6045;42.682;23.294;2023-05-15T13:51:20;6.53;;;4.55;;
11970;SDS011;6045;42.682;23.294;2023-05-15T13:53:47;6.28;;;4.35;;
11970;SDS011;6045;42.682;23.294;2023-05-15T13:56:13;8.82;;;5.15;;
11970;SDS011;6045;42.682;23.294;2023-05-15T13:58:40;6.88;;;3.85;;
11970;SDS011;6045;42.682;23.294;2023-05-15T14:01:07;6.07;;;3.78;;
11970;SDS011;6045;42.682;23.294;2023-05-15T14:03:34;7.55;;;4.05;;
11970;SDS011;6045;42.682;23.294;2023-05-15T14:06:02;6.07;;;3.63;;
11970;SDS011;6045;42.682;23.294;2023-05-15T14:08:29;5.97;;;3.78;;
11970;SDS011;6045;42.682;23.294;2023-05-15T14:10:56;5.97;;;4.25;;
11970;SDS011;6045;42.682;23.294;2023-05-15T14:13:23;12.02;;;4.55;;
11970;SDS011;6045;42.682;23.294;2023-05-15T14:15:50;6.88;;;3.63;;
11970;SDS011;6045;42.682;23.294;2023-05-15T14:18:16;8.43;;;4.45;;
11970;SDS011;6045;42.682;23.294;2023-05-15T14:20:43;9.80;;;4.75;;
11970;SDS011;6045;42.682;23.294;2023-05-15T14:23:11;7.38;;;4.88;;
11970;SDS011;6045;42.682;23.294;2023-05-15T14:25:39;6.97;;;4.57;;
11970;SDS011;6045;42.682;23.294;2023-05-15T14:28:06;5.18;;;4.35;;
11970;SDS011;6045;42.682;23.294;2023-05-15T14:30:33;9.55;;;4.57;;
11970;SDS011;6045;42.682;23.294;2023-05-15T14:33:00;6.82;;;4.32;;
11970;SDS011;6045;42.682;23.294;2023-05-15T14:35:26;6.60;;;4.72;;
11970;SDS011;6045;42.682;23.294;2023-05-15T14:37:53;5.97;;;4.78;;
11970;SDS011;6045;42.682;23.294;2023-05-15T14:40:21;5.30;;;3.97;;
11970;SDS011;6045;42.682;23.294;2023-05-15T14:42:48;6.38;;;3.92;;
11970;SDS011;6045;42.682;23.294;2023-05-15T14:45:15;6.10;;;3.95;;
11970;SDS011;6045;42.682;23.294;2023-05-15T14:47:41;5.22;;;4.00;;
11970;SDS011;6045;42.682;23.294;2023-05-15T14:50:08;7.28;;;3.95;;
11970;SDS011;6045;42.682;23.294;2023-05-15T14:52:35;4.90;;;4.05;;
11970;SDS011;6045;42.682;23.294;2023-05-15T14:55:02;3.90;;;3.35;;
11970;SDS011;6045;42.682;23.294;2023-05-15T14:57:31;7.32;;;4.03;;
11970;SDS011;6045;42.682;23.294;2023-05-15T14:59:58;6.07;;;3.60;;